sensor_id;sensor_type;location;lat;lon;timestamp;P1;durP1;ratioP1;P2;durP2;ratioP2
74465;SDS011;62916;50.044;15.938;2022-12-31T00:02:21;3.30;;;2.60;;
74465;SDS011;62916;50.044;15.938;2022-12-31T00:04:52;4.00;;;2.30;;
74465;SDS011;62916;50.044;15.938;2022-12-31T00:07:23;2.90;;;2.00;;
74465;SDS011;62916;50.044;15.938;2022-12-31T00:09:54;4.90;;;2.30;;
74465;SDS011;62916;50.044;15.938;2022-12-31T00:12:25;4.70;;;2.20;;
74465;SDS011;62916;50.044;15.938;2022-12-31T00:14:55;2.80;;;2.30;;
74465;SDS011;62916;50.044;15.938;2022-12-31T00:17:26;2.80;;;1.80;;
74465;SDS011;62916;50.044;15.938;2022-12-31T00:19:57;3.10;;;2.00;;
74465;SDS011;62916;50.044;15.938;2022-12-31T00:22:28;2.30;;;1.80;;
74465;SDS011;62916;50.044;15.938;2022-12-31T00:24:58;2.50;;;2.20;;
74465;SDS011;62916;50.044;15.938;2022-12-31T00:27:30;2.40;;;2.00;;
74465;SDS011;62916;50.044;15.938;2022-12-31T00:30:01;2.60;;;2.00;;
74465;SDS011;62916;50.044;15.938;2022-12-31T00:32:32;2.60;;;2.10;;
74465;SDS011;62916;50.044;15.938;2022-12-31T00:35:03;2.40;;;2.10;;
74465;SDS011;62916;50.044;15.938;2022-12-31T00:37:35;3.20;;;1.90;;
74465;SDS011;62916;50.044;15.938;2022-12-31T00:40:07;3.50;;;1.90;;
74465;SDS011;62916;50.044;15.938;2022-12-31T00:42:40;3.10;;;2.00;;
74465;SDS011;62916;50.044;15.938;2022-12-31T00:45:11;3.60;;;2.40;;
74465;SDS011;62916;50.044;15.938;2022-12-31T00:47:42;2.70;;;2.10;;
74465;SDS011;62916;50.044;15.938;2022-12-31T00:50:13;2.90;;;1.90;;
74465;SDS011;62916;50.044;15.938;2022-12-31T00:52:44;2.60;;;2.20;;
74465;SDS011;62916;50.044;15.938;2022-12-31T00:55:14;3.00;;;1.90;;
74465;SDS011;62916;50.044;15.938;2022-12-31T00:57:45;4.20;;;2.10;;
74465;SDS011;62916;50.044;15.938;2022-12-31T01:00:16;3.20;;;2.20;;
74465;SDS011;62916;50.044;15.938;2022-12-31T01:02:47;2.90;;;2.50;;
74465;SDS011;62916;50.044;15.938;2022-12-31T01:05:19;2.90;;;2.60;;
74465;SDS011;62916;50.044;15.938;2022-12-31T01:07:50;3.10;;;2.00;;
74465;SDS011;62916;50.044;15.938;2022-12-31T01:10:20;2.00;;;1.90;;
74465;SDS011;62916;50.044;15.938;2022-12-31T01:13:05;2.80;;;2.10;;
74465;SDS011;62916;50.044;15.938;2022-12-31T01:15:36;2.30;;;1.70;;
74465;SDS011;62916;50.044;15.938;2022-12-31T01:18:08;2.90;;;2.00;;
74465;SDS011;62916;50.044;15.938;2022-12-31T01:20:40;3.40;;;2.10;;
74465;SDS011;62916;50.044;15.938;2022-12-31T01:23:11;2.70;;;1.90;;
74465;SDS011;62916;50.044;15.938;2022-12-31T01:25:44;2.70;;;2.20;;
74465;SDS011;62916;50.044;15.938;2022-12-31T01:28:15;2.50;;;2.10;;
74465;SDS011;62916;50.044;15.938;2022-12-31T01:30:46;2.90;;;2.10;;
74465;SDS011;62916;50.044;15.938;2022-12-31T01:33:17;3.00;;;2.10;;
74465;SDS011;62916;50.044;15.938;2022-12-31T01:35:47;3.10;;;2.70;;
74465;SDS011;62916;50.044;15.938;2022-12-31T01:38:18;2.80;;;1.90;;
74465;SDS011;62916;50.044;15.938;2022-12-31T01:40:49;3.70;;;2.20;;
74465;SDS011;62916;50.044;15.938;2022-12-31T01:43:20;2.20;;;1.90;;
74465;SDS011;62916;50.044;15.938;2022-12-31T01:45:52;2.30;;;1.80;;
74465;SDS011;62916;50.044;15.938;2022-12-31T01:48:24;2.30;;;1.80;;
74465;SDS011;62916;50.044;15.938;2022-12-31T01:50:55;3.00;;;2.10;;
74465;SDS011;62916;50.044;15.938;2022-12-31T01:53:27;2.70;;;1.90;;
74465;SDS011;62916;50.044;15.938;2022-12-31T01:55:58;3.50;;;2.20;;
74465;SDS011;62916;50.044;15.938;2022-12-31T01:58:35;3.70;;;1.70;;
74465;SDS011;62916;50.044;15.938;2022-12-31T02:01:10;1.90;;;1.70;;
74465;SDS011;62916;50.044;15.938;2022-12-31T02:03:45;2.30;;;2.10;;
74465;SDS011;62916;50.044;15.938;2022-12-31T02:06:17;2.60;;;1.70;;
74465;SDS011;62916;50.044;15.938;2022-12-31T02:08:52;4.40;;;2.10;;
74465;SDS011;62916;50.044;15.938;2022-12-31T02:11:25;2.60;;;2.00;;
74465;SDS011;62916;50.044;15.938;2022-12-31T02:13:57;3.10;;;1.80;;
74465;SDS011;62916;50.044;15.938;2022-12-31T02:16:33;3.30;;;2.40;;
74465;SDS011;62916;50.044;15.938;2022-12-31T02:19:15;2.50;;;2.30;;
74465;SDS011;62916;50.044;15.938;2022-12-31T02:22:07;2.30;;;1.80;;
74465;SDS011;62916;50.044;15.938;2022-12-31T02:27:50;2.70;;;2.00;;
74465;SDS011;62916;50.044;15.938;2022-12-31T02:30:31;2.10;;;1.70;;
74465;SDS011;62916;50.044;15.938;2022-12-31T02:33:06;2.60;;;1.50;;
74465;SDS011;62916;50.044;15.938;2022-12-31T02:35:45;2.00;;;1.80;;
74465;SDS011;62916;50.044;15.938;2022-12-31T02:38:21;2.70;;;2.10;;
74465;SDS011;62916;50.044;15.938;2022-12-31T02:40:57;2.80;;;2.10;;
74465;SDS011;62916;50.044;15.938;2022-12-31T02:43:28;2.30;;;1.70;;
74465;SDS011;62916;50.044;15.938;2022-12-31T02:46:01;2.60;;;2.40;;
74465;SDS011;62916;50.044;15.938;2022-12-31T02:48:43;1.90;;;1.70;;
74465;SDS011;62916;50.044;15.938;2022-12-31T02:51:24;2.40;;;1.70;;
74465;SDS011;62916;50.044;15.938;2022-12-31T02:54:13;3.00;;;2.40;;
74465;SDS011;62916;50.044;15.938;2022-12-31T02:56:56;2.30;;;1.60;;
74465;SDS011;62916;50.044;15.938;2022-12-31T02:59:36;2.20;;;1.50;;
74465;SDS011;62916;50.044;15.938;2022-12-31T03:02:34;2.10;;;1.50;;
74465;SDS011;62916;50.044;15.938;2022-12-31T03:05:09;2.40;;;1.80;;
74465;SDS011;62916;50.044;15.938;2022-12-31T03:07:41;2.30;;;1.90;;
74465;SDS011;62916;50.044;15.938;2022-12-31T03:10:13;3.00;;;1.60;;
74465;SDS011;62916;50.044;15.938;2022-12-31T03:12:43;3.90;;;1.70;;
74465;SDS011;62916;50.044;15.938;2022-12-31T03:15:16;2.30;;;1.90;;
74465;SDS011;62916;50.044;15.938;2022-12-31T03:17:50;2.50;;;1.70;;
74465;SDS011;62916;50.044;15.938;2022-12-31T03:20:24;1.70;;;1.50;;
74465;SDS011;62916;50.044;15.938;2022-12-31T03:23:16;2.00;;;1.50;;
74465;SDS011;62916;50.044;15.938;2022-12-31T03:25:49;2.20;;;1.70;;
74465;SDS011;62916;50.044;15.938;2022-12-31T03:28:22;2.30;;;2.10;;
74465;SDS011;62916;50.044;15.938;2022-12-31T03:30:55;2.60;;;1.70;;
74465;SDS011;62916;50.044;15.938;2022-12-31T03:33:28;1.80;;;1.50;;
74465;SDS011;62916;50.044;15.938;2022-12-31T03:38:32;1.80;;;1.40;;
74465;SDS011;62916;50.044;15.938;2022-12-31T03:41:03;2.50;;;1.70;;
74465;SDS011;62916;50.044;15.938;2022-12-31T03:43:34;2.10;;;1.70;;
74465;SDS011;62916;50.044;15.938;2022-12-31T03:46:05;2.20;;;1.80;;
74465;SDS011;62916;50.044;15.938;2022-12-31T03:48:36;1.80;;;1.50;;
74465;SDS011;62916;50.044;15.938;2022-12-31T03:51:07;2.00;;;1.40;;
74465;SDS011;62916;50.044;15.938;2022-12-31T03:53:38;2.10;;;1.50;;
74465;SDS011;62916;50.044;15.938;2022-12-31T03:56:09;2.10;;;1.70;;
74465;SDS011;62916;50.044;15.938;2022-12-31T03:58:39;1.50;;;1.30;;
74465;SDS011;62916;50.044;15.938;2022-12-31T04:01:10;2.10;;;1.80;;
74465;SDS011;62916;50.044;15.938;2022-12-31T04:03:41;2.10;;;1.60;;
74465;SDS011;62916;50.044;15.938;2022-12-31T04:06:12;1.80;;;1.60;;
74465;SDS011;62916;50.044;15.938;2022-12-31T04:08:43;2.40;;;1.50;;
74465;SDS011;62916;50.044;15.938;2022-12-31T04:11:13;2.30;;;1.60;;
74465;SDS011;62916;50.044;15.938;2022-12-31T04:13:48;2.30;;;1.60;;
74465;SDS011;62916;50.044;15.938;2022-12-31T04:16:19;1.60;;;1.10;;
74465;SDS011;62916;50.044;15.938;2022-12-31T04:18:50;2.30;;;1.80;;
74465;SDS011;62916;50.044;15.938;2022-12-31T04:21:20;2.10;;;1.50;;
74465;SDS011;62916;50.044;15.938;2022-12-31T04:23:56;2.10;;;1.50;;
74465;SDS011;62916;50.044;15.938;2022-12-31T04:26:28;2.20;;;1.80;;
74465;SDS011;62916;50.044;15.938;2022-12-31T04:28:59;3.50;;;1.80;;
74465;SDS011;62916;50.044;15.938;2022-12-31T04:31:30;1.80;;;1.70;;
74465;SDS011;62916;50.044;15.938;2022-12-31T04:34:01;2.20;;;2.00;;
74465;SDS011;62916;50.044;15.938;2022-12-31T04:36:32;4.20;;;2.00;;
74465;SDS011;62916;50.044;15.938;2022-12-31T04:39:03;2.00;;;1.60;;
74465;SDS011;62916;50.044;15.938;2022-12-31T04:41:34;2.90;;;1.80;;
74465;SDS011;62916;50.044;15.938;2022-12-31T04:44:04;2.00;;;1.50;;
74465;SDS011;62916;50.044;15.938;2022-12-31T04:46:35;2.70;;;1.70;;
74465;SDS011;62916;50.044;15.938;2022-12-31T04:49:06;2.70;;;1.80;;
74465;SDS011;62916;50.044;15.938;2022-12-31T04:51:36;2.70;;;1.70;;
74465;SDS011;62916;50.044;15.938;2022-12-31T04:54:07;2.20;;;1.70;;
74465;SDS011;62916;50.044;15.938;2022-12-31T04:56:38;2.00;;;1.50;;
74465;SDS011;62916;50.044;15.938;2022-12-31T04:59:09;2.50;;;1.50;;
74465;SDS011;62916;50.044;15.938;2022-12-31T05:01:40;2.30;;;1.40;;
74465;SDS011;62916;50.044;15.938;2022-12-31T05:04:11;2.10;;;1.60;;
74465;SDS011;62916;50.044;15.938;2022-12-31T05:06:41;2.30;;;1.60;;
74465;SDS011;62916;50.044;15.938;2022-12-31T05:09:12;2.40;;;1.50;;
74465;SDS011;62916;50.044;15.938;2022-12-31T05:11:43;2.50;;;1.80;;
74465;SDS011;62916;50.044;15.938;2022-12-31T05:14:13;1.80;;;1.20;;
74465;SDS011;62916;50.044;15.938;2022-12-31T05:16:44;2.50;;;2.00;;
74465;SDS011;62916;50.044;15.938;2022-12-31T05:19:15;2.10;;;1.50;;
74465;SDS011;62916;50.044;15.938;2022-12-31T05:21:46;1.90;;;1.40;;
74465;SDS011;62916;50.044;15.938;2022-12-31T05:24:37;2.10;;;1.50;;
74465;SDS011;62916;50.044;15.938;2022-12-31T05:27:08;2.50;;;2.00;;
74465;SDS011;62916;50.044;15.938;2022-12-31T05:29:39;1.80;;;1.30;;
74465;SDS011;62916;50.044;15.938;2022-12-31T05:32:09;2.40;;;1.40;;
74465;SDS011;62916;50.044;15.938;2022-12-31T05:34:40;1.50;;;1.40;;
74465;SDS011;62916;50.044;15.938;2022-12-31T05:37:11;2.30;;;1.50;;
74465;SDS011;62916;50.044;15.938;2022-12-31T05:39:42;2.70;;;1.60;;
74465;SDS011;62916;50.044;15.938;2022-12-31T05:42:12;1.50;;;1.30;;
74465;SDS011;62916;50.044;15.938;2022-12-31T05:44:43;1.90;;;1.40;;
74465;SDS011;62916;50.044;15.938;2022-12-31T05:47:14;1.90;;;1.40;;
74465;SDS011;62916;50.044;15.938;2022-12-31T05:49:45;1.50;;;1.40;;
74465;SDS011;62916;50.044;15.938;2022-12-31T05:52:16;1.50;;;1.20;;
74465;SDS011;62916;50.044;15.938;2022-12-31T05:54:49;2.10;;;1.30;;
74465;SDS011;62916;50.044;15.938;2022-12-31T05:57:20;1.80;;;1.40;;
74465;SDS011;62916;50.044;15.938;2022-12-31T05:59:50;1.60;;;1.40;;
74465;SDS011;62916;50.044;15.938;2022-12-31T06:02:21;2.30;;;1.70;;
74465;SDS011;62916;50.044;15.938;2022-12-31T06:04:52;1.90;;;1.50;;
74465;SDS011;62916;50.044;15.938;2022-12-31T06:07:23;1.90;;;1.50;;
74465;SDS011;62916;50.044;15.938;2022-12-31T06:09:54;1.90;;;1.50;;
74465;SDS011;62916;50.044;15.938;2022-12-31T06:12:25;1.50;;;1.20;;
74465;SDS011;62916;50.044;15.938;2022-12-31T06:14:56;1.70;;;1.50;;
74465;SDS011;62916;50.044;15.938;2022-12-31T06:17:26;1.90;;;1.50;;
74465;SDS011;62916;50.044;15.938;2022-12-31T06:19:59;2.00;;;1.50;;
74465;SDS011;62916;50.044;15.938;2022-12-31T06:22:39;1.50;;;1.30;;
74465;SDS011;62916;50.044;15.938;2022-12-31T06:25:10;1.60;;;1.50;;
74465;SDS011;62916;50.044;15.938;2022-12-31T06:27:40;1.60;;;1.20;;
74465;SDS011;62916;50.044;15.938;2022-12-31T06:30:12;1.30;;;1.20;;
74465;SDS011;62916;50.044;15.938;2022-12-31T06:32:43;2.40;;;1.60;;
74465;SDS011;62916;50.044;15.938;2022-12-31T06:35:14;1.50;;;1.30;;
74465;SDS011;62916;50.044;15.938;2022-12-31T06:37:45;1.70;;;1.40;;
74465;SDS011;62916;50.044;15.938;2022-12-31T06:40:16;1.90;;;1.50;;
74465;SDS011;62916;50.044;15.938;2022-12-31T06:42:47;2.30;;;1.60;;
74465;SDS011;62916;50.044;15.938;2022-12-31T06:45:26;1.70;;;1.30;;
74465;SDS011;62916;50.044;15.938;2022-12-31T06:47:57;1.40;;;1.20;;
74465;SDS011;62916;50.044;15.938;2022-12-31T06:50:28;1.60;;;1.40;;
74465;SDS011;62916;50.044;15.938;2022-12-31T06:52:58;1.40;;;1.30;;
74465;SDS011;62916;50.044;15.938;2022-12-31T06:55:30;2.00;;;1.60;;
74465;SDS011;62916;50.044;15.938;2022-12-31T06:58:02;1.50;;;1.30;;
74465;SDS011;62916;50.044;15.938;2022-12-31T07:00:34;1.70;;;1.50;;
74465;SDS011;62916;50.044;15.938;2022-12-31T07:03:09;1.50;;;1.30;;
74465;SDS011;62916;50.044;15.938;2022-12-31T07:05:49;1.80;;;1.20;;
74465;SDS011;62916;50.044;15.938;2022-12-31T07:08:35;1.50;;;1.10;;
74465;SDS011;62916;50.044;15.938;2022-12-31T07:11:13;1.40;;;1.20;;
74465;SDS011;62916;50.044;15.938;2022-12-31T07:13:54;1.60;;;1.40;;
74465;SDS011;62916;50.044;15.938;2022-12-31T07:16:33;1.30;;;1.20;;
74465;SDS011;62916;50.044;15.938;2022-12-31T07:19:20;2.00;;;1.80;;
74465;SDS011;62916;50.044;15.938;2022-12-31T07:21:58;1.70;;;1.50;;
74465;SDS011;62916;50.044;15.938;2022-12-31T07:24:31;1.30;;;1.10;;
74465;SDS011;62916;50.044;15.938;2022-12-31T07:27:09;1.60;;;1.40;;
74465;SDS011;62916;50.044;15.938;2022-12-31T07:29:54;1.60;;;1.20;;
74465;SDS011;62916;50.044;15.938;2022-12-31T07:32:35;1.60;;;1.50;;
74465;SDS011;62916;50.044;15.938;2022-12-31T07:35:16;1.50;;;1.40;;
74465;SDS011;62916;50.044;15.938;2022-12-31T07:38:04;1.50;;;1.10;;
74465;SDS011;62916;50.044;15.938;2022-12-31T07:40:48;1.30;;;1.20;;
74465;SDS011;62916;50.044;15.938;2022-12-31T07:43:38;2.10;;;1.30;;
74465;SDS011;62916;50.044;15.938;2022-12-31T07:48:50;1.30;;;1.10;;
74465;SDS011;62916;50.044;15.938;2022-12-31T07:51:22;1.70;;;1.30;;
74465;SDS011;62916;50.044;15.938;2022-12-31T07:53:54;1.80;;;1.40;;
74465;SDS011;62916;50.044;15.938;2022-12-31T07:56:25;1.50;;;1.40;;
74465;SDS011;62916;50.044;15.938;2022-12-31T07:59:04;1.20;;;1.10;;
74465;SDS011;62916;50.044;15.938;2022-12-31T08:04:24;1.60;;;1.00;;
74465;SDS011;62916;50.044;15.938;2022-12-31T08:07:01;1.60;;;1.10;;
74465;SDS011;62916;50.044;15.938;2022-12-31T08:09:43;1.90;;;1.00;;
74465;SDS011;62916;50.044;15.938;2022-12-31T08:12:23;1.60;;;1.10;;
74465;SDS011;62916;50.044;15.938;2022-12-31T08:14:56;1.60;;;1.10;;
74465;SDS011;62916;50.044;15.938;2022-12-31T08:17:28;3.60;;;1.30;;
74465;SDS011;62916;50.044;15.938;2022-12-31T08:19:59;2.10;;;1.20;;
74465;SDS011;62916;50.044;15.938;2022-12-31T08:22:43;1.60;;;1.10;;
74465;SDS011;62916;50.044;15.938;2022-12-31T08:25:34;1.90;;;1.00;;
74465;SDS011;62916;50.044;15.938;2022-12-31T08:28:14;1.40;;;1.00;;
74465;SDS011;62916;50.044;15.938;2022-12-31T08:30:51;1.60;;;1.10;;
74465;SDS011;62916;50.044;15.938;2022-12-31T08:33:28;1.10;;;0.90;;
74465;SDS011;62916;50.044;15.938;2022-12-31T08:36:08;1.50;;;0.90;;
74465;SDS011;62916;50.044;15.938;2022-12-31T08:38:48;2.10;;;1.00;;
74465;SDS011;62916;50.044;15.938;2022-12-31T08:41:26;1.40;;;1.20;;
74465;SDS011;62916;50.044;15.938;2022-12-31T08:44:10;0.90;;;0.80;;
74465;SDS011;62916;50.044;15.938;2022-12-31T08:46:48;1.30;;;1.10;;
74465;SDS011;62916;50.044;15.938;2022-12-31T08:49:25;1.30;;;1.20;;
74465;SDS011;62916;50.044;15.938;2022-12-31T08:52:01;1.70;;;1.20;;
74465;SDS011;62916;50.044;15.938;2022-12-31T08:54:41;0.90;;;0.80;;
74465;SDS011;62916;50.044;15.938;2022-12-31T08:57:14;1.60;;;1.00;;
74465;SDS011;62916;50.044;15.938;2022-12-31T08:59:54;2.00;;;1.00;;
74465;SDS011;62916;50.044;15.938;2022-12-31T09:02:37;1.10;;;1.00;;
74465;SDS011;62916;50.044;15.938;2022-12-31T09:05:20;1.40;;;1.10;;
74465;SDS011;62916;50.044;15.938;2022-12-31T09:07:57;1.90;;;1.10;;
74465;SDS011;62916;50.044;15.938;2022-12-31T09:10:39;1.10;;;0.80;;
74465;SDS011;62916;50.044;15.938;2022-12-31T09:13:20;2.10;;;0.90;;
74465;SDS011;62916;50.044;15.938;2022-12-31T09:15:56;1.40;;;1.10;;
74465;SDS011;62916;50.044;15.938;2022-12-31T09:18:37;2.90;;;1.00;;
74465;SDS011;62916;50.044;15.938;2022-12-31T09:21:10;2.10;;;1.00;;
74465;SDS011;62916;50.044;15.938;2022-12-31T09:23:43;1.40;;;1.00;;
74465;SDS011;62916;50.044;15.938;2022-12-31T09:26:18;1.00;;;0.80;;
74465;SDS011;62916;50.044;15.938;2022-12-31T09:29:03;1.60;;;1.30;;
74465;SDS011;62916;50.044;15.938;2022-12-31T09:31:50;1.30;;;0.80;;
74465;SDS011;62916;50.044;15.938;2022-12-31T09:34:29;1.50;;;0.60;;
74465;SDS011;62916;50.044;15.938;2022-12-31T09:37:09;0.90;;;0.80;;
74465;SDS011;62916;50.044;15.938;2022-12-31T09:39:46;2.20;;;0.90;;
74465;SDS011;62916;50.044;15.938;2022-12-31T09:42:29;1.40;;;1.30;;
74465;SDS011;62916;50.044;15.938;2022-12-31T09:51:31;1.10;;;0.70;;
74465;SDS011;62916;50.044;15.938;2022-12-31T09:54:21;1.20;;;0.90;;
74465;SDS011;62916;50.044;15.938;2022-12-31T09:59:59;1.00;;;0.90;;
74465;SDS011;62916;50.044;15.938;2022-12-31T10:02:42;1.10;;;1.00;;
74465;SDS011;62916;50.044;15.938;2022-12-31T10:08:05;1.00;;;0.90;;
74465;SDS011;62916;50.044;15.938;2022-12-31T10:10:53;1.10;;;1.00;;
74465;SDS011;62916;50.044;15.938;2022-12-31T10:13:40;1.20;;;0.90;;
74465;SDS011;62916;50.044;15.938;2022-12-31T10:16:27;1.30;;;0.60;;
74465;SDS011;62916;50.044;15.938;2022-12-31T10:19:24;2.20;;;1.30;;
74465;SDS011;62916;50.044;15.938;2022-12-31T10:22:13;1.60;;;1.00;;
74465;SDS011;62916;50.044;15.938;2022-12-31T10:25:10;1.90;;;1.20;;
74465;SDS011;62916;50.044;15.938;2022-12-31T10:28:10;2.10;;;1.00;;
74465;SDS011;62916;50.044;15.938;2022-12-31T10:30:53;1.10;;;0.90;;
74465;SDS011;62916;50.044;15.938;2022-12-31T10:33:41;1.10;;;0.90;;
74465;SDS011;62916;50.044;15.938;2022-12-31T10:36:18;1.70;;;1.00;;
74465;SDS011;62916;50.044;15.938;2022-12-31T10:39:02;2.70;;;1.10;;
74465;SDS011;62916;50.044;15.938;2022-12-31T10:45:15;1.90;;;1.20;;
74465;SDS011;62916;50.044;15.938;2022-12-31T10:54:27;1.40;;;0.90;;
74465;SDS011;62916;50.044;15.938;2022-12-31T10:57:22;3.00;;;1.00;;
74465;SDS011;62916;50.044;15.938;2022-12-31T11:00:14;1.70;;;1.10;;
74465;SDS011;62916;50.044;15.938;2022-12-31T11:03:13;1.30;;;1.00;;
74465;SDS011;62916;50.044;15.938;2022-12-31T11:06:28;1.10;;;0.90;;
74465;SDS011;62916;50.044;15.938;2022-12-31T11:12:42;1.60;;;0.90;;
74465;SDS011;62916;50.044;15.938;2022-12-31T11:21:08;2.60;;;1.20;;
74465;SDS011;62916;50.044;15.938;2022-12-31T11:23:57;1.40;;;1.20;;
74465;SDS011;62916;50.044;15.938;2022-12-31T11:26:41;1.20;;;1.10;;
74465;SDS011;62916;50.044;15.938;2022-12-31T11:29:27;1.20;;;1.00;;
74465;SDS011;62916;50.044;15.938;2022-12-31T11:32:09;1.00;;;0.70;;
74465;SDS011;62916;50.044;15.938;2022-12-31T11:37:30;1.10;;;1.00;;
74465;SDS011;62916;50.044;15.938;2022-12-31T11:40:14;1.70;;;1.10;;
74465;SDS011;62916;50.044;15.938;2022-12-31T11:43:09;1.10;;;1.00;;
74465;SDS011;62916;50.044;15.938;2022-12-31T11:45:52;1.10;;;0.90;;
74465;SDS011;62916;50.044;15.938;2022-12-31T11:48:52;1.00;;;0.90;;
74465;SDS011;62916;50.044;15.938;2022-12-31T11:51:42;1.20;;;0.90;;
74465;SDS011;62916;50.044;15.938;2022-12-31T11:54:32;1.50;;;1.00;;
74465;SDS011;62916;50.044;15.938;2022-12-31T11:57:16;1.30;;;0.90;;
74465;SDS011;62916;50.044;15.938;2022-12-31T11:59:55;1.80;;;1.30;;
74465;SDS011;62916;50.044;15.938;2022-12-31T12:02:28;1.30;;;1.00;;
74465;SDS011;62916;50.044;15.938;2022-12-31T12:05:04;1.20;;;1.10;;
74465;SDS011;62916;50.044;15.938;2022-12-31T12:07:38;1.50;;;1.20;;
74465;SDS011;62916;50.044;15.938;2022-12-31T12:10:16;1.10;;;1.00;;
74465;SDS011;62916;50.044;15.938;2022-12-31T12:12:55;1.60;;;0.90;;
74465;SDS011;62916;50.044;15.938;2022-12-31T12:15:27;0.80;;;0.80;;
74465;SDS011;62916;50.044;15.938;2022-12-31T12:18:05;0.80;;;0.70;;
74465;SDS011;62916;50.044;15.938;2022-12-31T12:20:37;1.00;;;0.90;;
74465;SDS011;62916;50.044;15.938;2022-12-31T12:23:15;1.20;;;1.00;;
74465;SDS011;62916;50.044;15.938;2022-12-31T12:25:51;1.10;;;0.80;;
74465;SDS011;62916;50.044;15.938;2022-12-31T12:28:23;1.20;;;0.80;;
74465;SDS011;62916;50.044;15.938;2022-12-31T12:30:57;0.90;;;0.80;;
74465;SDS011;62916;50.044;15.938;2022-12-31T12:33:39;2.10;;;1.60;;
74465;SDS011;62916;50.044;15.938;2022-12-31T12:36:12;2.70;;;0.80;;
74465;SDS011;62916;50.044;15.938;2022-12-31T12:38:45;1.20;;;1.00;;
74465;SDS011;62916;50.044;15.938;2022-12-31T12:41:20;1.10;;;0.90;;
74465;SDS011;62916;50.044;15.938;2022-12-31T12:44:01;1.10;;;1.00;;
74465;SDS011;62916;50.044;15.938;2022-12-31T12:46:37;1.30;;;1.00;;
74465;SDS011;62916;50.044;15.938;2022-12-31T12:49:19;1.60;;;0.80;;
74465;SDS011;62916;50.044;15.938;2022-12-31T12:52:08;1.20;;;1.10;;
74465;SDS011;62916;50.044;15.938;2022-12-31T12:54:57;1.00;;;0.60;;
74465;SDS011;62916;50.044;15.938;2022-12-31T12:57:37;1.40;;;1.30;;
74465;SDS011;62916;50.044;15.938;2022-12-31T13:00:19;1.10;;;0.80;;
74465;SDS011;62916;50.044;15.938;2022-12-31T13:06:42;1.20;;;1.00;;
74465;SDS011;62916;50.044;15.938;2022-12-31T13:09:33;1.30;;;0.80;;
74465;SDS011;62916;50.044;15.938;2022-12-31T13:12:22;1.60;;;0.80;;
74465;SDS011;62916;50.044;15.938;2022-12-31T13:15:20;1.00;;;0.70;;
74465;SDS011;62916;50.044;15.938;2022-12-31T13:18:00;0.80;;;0.70;;
74465;SDS011;62916;50.044;15.938;2022-12-31T13:20:43;1.60;;;0.90;;
74465;SDS011;62916;50.044;15.938;2022-12-31T13:23:20;2.20;;;0.80;;
74465;SDS011;62916;50.044;15.938;2022-12-31T13:25:57;1.00;;;0.90;;
74465;SDS011;62916;50.044;15.938;2022-12-31T13:28:35;1.40;;;0.80;;
74465;SDS011;62916;50.044;15.938;2022-12-31T13:31:09;0.70;;;0.70;;
74465;SDS011;62916;50.044;15.938;2022-12-31T13:33:44;1.00;;;0.60;;
74465;SDS011;62916;50.044;15.938;2022-12-31T13:36:19;1.50;;;1.20;;
74465;SDS011;62916;50.044;15.938;2022-12-31T13:38:53;0.70;;;0.70;;
74465;SDS011;62916;50.044;15.938;2022-12-31T13:41:27;0.90;;;0.60;;
74465;SDS011;62916;50.044;15.938;2022-12-31T13:44:03;2.10;;;0.80;;
74465;SDS011;62916;50.044;15.938;2022-12-31T13:46:39;1.30;;;0.60;;
74465;SDS011;62916;50.044;15.938;2022-12-31T13:49:14;1.10;;;0.80;;
74465;SDS011;62916;50.044;15.938;2022-12-31T13:51:49;1.00;;;0.70;;
74465;SDS011;62916;50.044;15.938;2022-12-31T13:54:29;1.00;;;0.50;;
74465;SDS011;62916;50.044;15.938;2022-12-31T13:57:08;1.30;;;0.70;;
74465;SDS011;62916;50.044;15.938;2022-12-31T13:59:46;1.00;;;0.80;;
74465;SDS011;62916;50.044;15.938;2022-12-31T14:02:28;1.00;;;0.80;;
74465;SDS011;62916;50.044;15.938;2022-12-31T14:05:05;0.60;;;0.50;;
74465;SDS011;62916;50.044;15.938;2022-12-31T14:07:45;1.30;;;0.70;;
74465;SDS011;62916;50.044;15.938;2022-12-31T14:10:20;0.80;;;0.70;;
74465;SDS011;62916;50.044;15.938;2022-12-31T14:13:01;1.30;;;0.80;;
74465;SDS011;62916;50.044;15.938;2022-12-31T14:15:43;1.00;;;0.80;;
74465;SDS011;62916;50.044;15.938;2022-12-31T14:18:24;0.70;;;0.70;;
74465;SDS011;62916;50.044;15.938;2022-12-31T14:21:02;1.00;;;0.80;;
74465;SDS011;62916;50.044;15.938;2022-12-31T14:23:42;0.80;;;0.80;;
74465;SDS011;62916;50.044;15.938;2022-12-31T14:26:19;0.90;;;0.60;;
74465;SDS011;62916;50.044;15.938;2022-12-31T14:28:59;0.80;;;0.70;;
74465;SDS011;62916;50.044;15.938;2022-12-31T14:31:50;0.70;;;0.70;;
74465;SDS011;62916;50.044;15.938;2022-12-31T14:34:39;0.90;;;0.50;;
74465;SDS011;62916;50.044;15.938;2022-12-31T14:37:21;0.80;;;0.70;;
74465;SDS011;62916;50.044;15.938;2022-12-31T14:40:03;1.20;;;0.60;;
74465;SDS011;62916;50.044;15.938;2022-12-31T14:42:44;0.60;;;0.50;;
74465;SDS011;62916;50.044;15.938;2022-12-31T14:45:44;1.00;;;0.50;;
74465;SDS011;62916;50.044;15.938;2022-12-31T14:48:30;1.10;;;0.80;;
74465;SDS011;62916;50.044;15.938;2022-12-31T14:51:11;1.80;;;0.80;;
74465;SDS011;62916;50.044;15.938;2022-12-31T14:53:51;1.30;;;1.00;;
74465;SDS011;62916;50.044;15.938;2022-12-31T14:56:31;1.10;;;1.00;;
74465;SDS011;62916;50.044;15.938;2022-12-31T14:59:22;0.80;;;0.60;;
74465;SDS011;62916;50.044;15.938;2022-12-31T15:01:56;0.80;;;0.60;;
74465;SDS011;62916;50.044;15.938;2022-12-31T15:04:30;0.80;;;0.60;;
74465;SDS011;62916;50.044;15.938;2022-12-31T15:07:04;0.80;;;0.80;;
74465;SDS011;62916;50.044;15.938;2022-12-31T15:09:52;1.30;;;0.70;;
74465;SDS011;62916;50.044;15.938;2022-12-31T15:12:49;1.00;;;0.70;;
74465;SDS011;62916;50.044;15.938;2022-12-31T15:18:37;0.90;;;0.50;;
74465;SDS011;62916;50.044;15.938;2022-12-31T15:24:20;0.70;;;0.50;;
74465;SDS011;62916;50.044;15.938;2022-12-31T15:26:53;0.60;;;0.50;;
74465;SDS011;62916;50.044;15.938;2022-12-31T15:29:27;0.70;;;0.60;;
74465;SDS011;62916;50.044;15.938;2022-12-31T15:32:02;0.70;;;0.60;;
74465;SDS011;62916;50.044;15.938;2022-12-31T15:34:35;0.80;;;0.60;;
74465;SDS011;62916;50.044;15.938;2022-12-31T15:40:05;0.80;;;0.60;;
74465;SDS011;62916;50.044;15.938;2022-12-31T15:42:48;1.00;;;0.70;;
74465;SDS011;62916;50.044;15.938;2022-12-31T15:45:23;1.00;;;0.60;;
74465;SDS011;62916;50.044;15.938;2022-12-31T15:48:00;0.60;;;0.50;;
74465;SDS011;62916;50.044;15.938;2022-12-31T15:50:36;0.90;;;0.60;;
74465;SDS011;62916;50.044;15.938;2022-12-31T15:53:14;0.80;;;0.60;;
74465;SDS011;62916;50.044;15.938;2022-12-31T15:55:56;2.00;;;0.60;;
74465;SDS011;62916;50.044;15.938;2022-12-31T15:58:30;0.80;;;0.60;;
74465;SDS011;62916;50.044;15.938;2022-12-31T16:01:05;1.20;;;0.90;;
74465;SDS011;62916;50.044;15.938;2022-12-31T16:03:43;1.20;;;0.70;;
74465;SDS011;62916;50.044;15.938;2022-12-31T16:06:17;0.70;;;0.50;;
74465;SDS011;62916;50.044;15.938;2022-12-31T16:08:49;0.70;;;0.60;;
74465;SDS011;62916;50.044;15.938;2022-12-31T16:11:20;0.80;;;0.60;;
74465;SDS011;62916;50.044;15.938;2022-12-31T16:13:52;0.70;;;0.70;;
74465;SDS011;62916;50.044;15.938;2022-12-31T16:16:26;0.90;;;0.70;;
74465;SDS011;62916;50.044;15.938;2022-12-31T16:22:01;0.50;;;0.50;;
74465;SDS011;62916;50.044;15.938;2022-12-31T16:24:37;0.80;;;0.60;;
74465;SDS011;62916;50.044;15.938;2022-12-31T16:27:28;0.80;;;0.50;;
74465;SDS011;62916;50.044;15.938;2022-12-31T16:30:00;2.10;;;0.80;;
74465;SDS011;62916;50.044;15.938;2022-12-31T16:32:34;0.90;;;0.70;;